Date,TemperatureHighF,TemperatureAvgF,TemperatureLowF,DewpointHighF,DewpointAvgF,DewpointLowF,HumidityHigh,HumidityAvg,HumidityLow,PressureMaxIn,PressureMinIn,WindSpeedMaxMPH,WindSpeedAvgMPH,GustSpeedMaxMPH,PrecipitationSumIn
2013-5-1,70.9,57.8,44.4,50.2,44.0,37.8,95,64,31,30.30,30.16,6,2,0,0.00
2013-5-2,68.5,54.3,42.3,50.7,45.2,41.0,96,73,49,30.34,30.20,8,2,0,0.00
2013-5-3,66.4,54.6,43.9,49.0,43.0,39.5,97,68,38,30.28,30.17,9,3,0,0.00
2013-5-4,68.5,55.8,45.0,47.9,43.1,39.4,84,64,45,30.23,30.06,11,3,0,0.00
2013-5-5,64.2,52.1,42.6,46.2,41.2,37.7,86,67,51,30.14,30.02,8,3,0,0.00
2013-5-6,60.8,54.9,49.3,56.7,50.8,44.1,95,86,80,30.06,29.92,8,2,0,0.00
2013-5-7,63.3,59.3,57.4,62.1,58.6,56.5,99,98,94,29.93,29.79,8,3,0,1.00
2013-5-8,69.3,58.9,54.7,58.6,56.1,50.4,99,91,61,29.89,29.79,5,0,0,0.20
2013-5-9,77.2,62.4,53.6,62.2,56.4,53.3,99,83,55,29.88,29.79,4,1,0,0.00
2013-5-10,85.6,68.9,54.0,63.6,58.4,53.4,98,73,41,29.90,29.72,7,1,0,0.40
2013-5-11,79.0,66.6,62.1,68.3,63.5,60.8,99,91,61,29.78,29.56,3,1,0,0.54
2013-5-12,65.3,58.5,48.0,62.3,42.1,30.1,99,58,32,29.91,29.62,10,2,0,0.00
2013-5-13,60.3,50.1,39.4,37.4,31.8,25.8,85,52,29,30.05,29.90,6,1,0,0.00
2013-5-14,64.8,51.9,36.3,42.2,35.9,31.3,89,57,35,30.12,29.92,5,1,0,0.00
2013-5-15,86.9,66.3,50.4,66.7,54.6,42.5,87,67,50,29.92,29.55,5,1,0,0.00
2013-5-16,82.6,72.7,63.1,65.2,60.6,55.2,83,67,51,29.80,29.61,5,1,0,0.00
2013-5-17,83.7,71.2,57.7,61.8,56.6,53.2,90,62,40,30.00,29.79,4,1,0,0.00
2013-5-18,66.7,61.6,58.5,59.6,56.6,53.4,98,84,66,30.11,30.00,5,2,0,0.12
2013-5-19,77.7,65.6,58.5,66.3,62.4,57.9,99,91,67,30.08,29.95,4,1,0,0.01
2013-5-20,83.1,71.2,64.9,70.6,67.1,64.6,99,88,62,29.99,29.83,4,1,0,0.01
2013-5-21,84.0,72.9,65.8,72.1,68.4,65.2,99,87,67,29.87,29.73,5,1,0,0.00
2013-5-22,87.3,75.9,67.3,74.5,70.1,63.9,99,84,63,29.81,29.69,5,1,0,0.00
2013-5-23,81.5,71.7,62.6,69.9,67.0,61.6,98,86,66,29.76,29.60,4,1,0,1.17
2013-5-24,62.6,55.9,47.1,62.1,48.5,34.4,99,77,58,30.04,29.59,10,3,0,0.07
2013-5-25,66.7,53.6,42.8,43.8,37.7,32.8,70,56,36,30.09,29.98,9,3,0,0.00
2013-5-26,73.8,58.9,45.3,45.0,39.8,36.8,73,52,27,30.12,30.01,6,1,0,0.00
2013-5-27,70.5,60.3,47.5,52.6,46.3,40.9,85,62,39,30.18,30.05,4,0,0,0.00
2013-5-28,84.4,66.4,55.6,69.8,60.4,51.1,99,82,59,30.08,29.92,5,1,0,1.24
2013-5-29,88.2,75.9,65.1,70.6,67.1,64.7,99,76,53,30.00,29.92,5,1,0,0.01
2013-5-30,89.1,77.8,65.7,72.5,67.1,62.5,91,71,55,30.05,29.95,4,1,0,0.00
2013-5-31,90.7,77.9,64.8,70.6,66.3,62.1,93,69,52,30.02,29.88,4,1,0,0.00